Time;durP1;ratioP1;P1;durP2;ratioP2;P2;SDS_P1;SDS_P2;PMS_P1;PMS_P2;Temp;Humidity;BMP_temperature;BMP_pressure;BME280_temperature;BME280_humidity;BME280_pressure;Samples;Min_cycle;Max_cycle;Signal;HPM_P1;HPM_P2
2022/02/10 00:13:58;;;;;;;15.05;6.65;;;;;;;;;;4974560;28;20472;-68
2022/02/10 00:22:09;;;;;;;11.07;5.93;;;;;;;;;;4974288;28;20487;-68
2022/02/10 00:35:51;;;;;;;11.88;6.13;;;;;;;;;;4974170;28;20066;-69
2022/02/10 00:38:21;;;;;;;12.68;5.38;;;;;;;;;;4973649;28;20054;-69
2022/02/10 00:40:48;;;;;;;12.43;5.63;;;;;;;;;;4974163;28;20054;-68
2022/02/10 00:43:15;;;;;;;15.73;6.22;;;;;;;;;;4973786;28;20526;-68
2022/02/10 00:45:43;;;;;;;13.00;6.03;;;;;;;;;;4973704;28;20055;-69
2022/02/10 00:48:12;;;;;;;11.48;6.53;;;;;;;;;;4973769;28;20143;-68
2022/02/10 00:50:41;;;;;;;12.45;6.05;;;;;;;;;;4973682;28;20057;-68
2022/02/10 00:53:14;;;;;;;16.42;6.50;;;;;;;;;;4973443;28;20058;-69
2022/02/10 00:55:44;;;;;;;14.35;6.63;;;;;;;;;;4973623;28;20106;-68
2022/02/10 00:58:14;;;;;;;11.07;5.22;;;;;;;;;;4973688;28;20129;-68
2022/02/10 01:31:19;;;;;;;8.10;4.38;;;;;;;;;;4973196;28;20058;-69
2022/02/10 01:33:46;;;;;;;10.45;4.78;;;;;;;;;;4973272;28;20057;-69
2022/02/10 01:36:14;;;;;;;9.93;4.57;;;;;;;;;;4973292;28;20106;-69
2022/02/10 01:38:42;;;;;;;10.73;4.10;;;;;;;;;;4973151;28;20427;-68
2022/02/10 01:58:04;;;;;;;10.00;4.20;;;;;;;;;;4972825;28;20145;-70
2022/02/10 02:03:26;;;;;;;8.15;4.63;;;;;;;;;;4973363;28;20190;-69
2022/02/10 02:05:59;;;;;;;7.63;4.00;;;;;;;;;;4972936;28;20109;-69
2022/02/10 02:08:31;;;;;;;9.18;3.97;;;;;;;;;;4972736;28;20086;-69
2022/02/10 02:10:58;;;;;;;7.80;3.92;;;;;;;;;;4973082;28;20444;-69
2022/02/10 02:13:25;;;;;;;8.50;4.13;;;;;;;;;;4972998;28;20047;-69
2022/02/10 02:15:53;;;;;;;7.53;3.55;;;;;;;;;;4974527;28;20053;-69
2022/02/10 02:18:20;;;;;;;9.38;4.75;;;;;;;;;;4976185;28;20514;-69
2022/02/10 02:20:49;;;;;;;9.48;4.00;;;;;;;;;;4976617;28;20488;-69
2022/02/10 02:23:19;;;;;;;10.23;4.20;;;;;;;;;;4976567;28;20047;-69
2022/02/10 02:25:49;;;;;;;9.60;4.87;;;;;;;;;;4977015;28;20468;-69
2022/02/10 02:28:17;;;;;;;7.22;3.63;;;;;;;;;;4976429;28;20281;-68
2022/02/10 02:30:48;;;;;;;6.65;3.75;;;;;;;;;;4976587;28;20047;-70
2022/02/10 02:36:39;;;;;;;6.85;3.92;;;;;;;;;;4976292;28;20102;-69
2022/02/10 03:04:22;;;;;;;7.43;3.70;;;;;;;;;;4975940;28;20531;-69
2022/02/10 03:06:53;;;;;;;8.48;3.75;;;;;;;;;;4975503;28;20129;-69
2022/02/10 03:09:24;;;;;;;11.23;4.18;;;;;;;;;;4975893;28;20078;-70
2022/02/10 03:11:55;;;;;;;8.27;3.38;;;;;;;;;;4975539;28;20097;-70
2022/02/10 03:14:27;;;;;;;8.70;3.80;;;;;;;;;;4975690;28;20137;-69
2022/02/10 03:19:53;;;;;;;7.32;3.90;;;;;;;;;;4973518;28;20058;-70
2022/02/10 03:22:36;;;;;;;8.20;3.78;;;;;;;;;;4975752;28;20471;-69
2022/02/10 04:04:09;;;;;;;7.22;3.40;;;;;;;;;;4967737;28;20117;-69
2022/02/10 04:07:21;;;;;;;9.15;3.40;;;;;;;;;;4974298;28;20141;-69
2022/02/10 04:15:30;;;;;;;7.55;3.05;;;;;;;;;;4974377;28;20412;-69
2022/02/10 04:18:23;;;;;;;7.88;2.88;;;;;;;;;;4974134;28;20070;-70
2022/02/10 04:20:58;;;;;;;7.53;2.83;;;;;;;;;;4974311;28;20054;-69
2022/02/10 04:23:41;;;;;;;6.78;2.92;;;;;;;;;;4974119;28;20050;-70
2022/02/10 04:26:21;;;;;;;5.97;3.00;;;;;;;;;;4974408;28;20138;-69
2022/02/10 04:32:08;;;;;;;7.00;2.92;;;;;;;;;;4936540;28;20047;-69
2022/02/10 04:57:03;;;;;;;5.20;2.30;;;;;;;;;;4974226;28;20524;-68
2022/02/10 04:59:52;;;;;;;5.70;2.80;;;;;;;;;;4974553;28;20512;-68
2022/02/10 05:03:10;;;;;;;7.25;3.22;;;;;;;;;;4973988;28;20054;-69
2022/02/10 05:08:51;;;;;;;7.60;3.28;;;;;;;;;;4963128;28;20046;-68
2022/02/10 05:17:15;;;;;;;10.73;4.38;;;;;;;;;;4935667;28;20098;-69
2022/02/10 05:20:19;;;;;;;9.43;3.83;;;;;;;;;;4973583;28;20046;-69
2022/02/10 05:23:14;;;;;;;7.72;3.67;;;;;;;;;;4973449;28;20055;-69
2022/02/10 05:31:52;;;;;;;10.65;4.30;;;;;;;;;;4973390;28;20526;-70
2022/02/10 05:34:18;;;;;;;10.45;4.80;;;;;;;;;;4984451;23;20051;-57
2022/02/10 05:36:47;;;;;;;7.85;3.65;;;;;;;;;;4973687;28;20059;-58
2022/02/10 05:39:18;;;;;;;9.70;4.30;;;;;;;;;;4973467;28;20058;-58
2022/02/10 05:42:10;;;;;;;7.38;3.35;;;;;;;;;;4973410;28;20050;-58
2022/02/10 05:50:52;;;;;;;8.00;3.92;;;;;;;;;;4974101;28;20173;-59
2022/02/10 05:56:10;;;;;;;11.80;3.85;;;;;;;;;;4977489;28;20093;-60
2022/02/10 05:59:05;;;;;;;8.88;3.88;;;;;;;;;;4977175;28;20055;-58
2022/02/10 06:48:56;;;;;;;9.02;3.80;;;;;;;;;;4930354;28;20047;-56
2022/02/10 06:51:32;;;;;;;8.80;3.95;;;;;;;;;;4976368;28;20094;-55
2022/02/10 06:54:10;;;;;;;9.00;3.72;;;;;;;;;;4976599;28;20461;-59
2022/02/10 06:57:22;;;;;;;13.07;4.47;;;;;;;;;;4976442;28;20055;-57
2022/02/10 07:05:41;;;;;;;10.48;5.15;;;;;;;;;;4976079;28;20054;-58
2022/02/10 07:11:18;;;;;;;8.23;3.53;;;;;;;;;;4969308;28;20086;-59
2022/02/10 07:14:08;;;;;;;9.87;3.90;;;;;;;;;;4976121;28;20094;-59
2022/02/10 07:47:24;;;;;;;8.45;3.63;;;;;;;;;;4902820;28;20056;-59
2022/02/10 07:50:14;;;;;;;12.20;3.47;;;;;;;;;;4974990;28;20051;-58
2022/02/10 07:55:44;;;;;;;8.77;3.72;;;;;;;;;;4935433;28;20141;-60
2022/02/10 07:58:29;;;;;;;7.35;3.70;;;;;;;;;;4974721;28;20054;-60
2022/02/10 08:50:45;;;;;;;11.77;4.57;;;;;;;;;;4972094;28;20101;-60
2022/02/10 08:55:58;;;;;;;7.68;4.65;;;;;;;;;;4939307;28;19922;-57
2022/02/10 09:04:09;;;;;;;7.95;3.20;;;;;;;;;;4947523;28;19926;-60
2022/02/10 09:07:02;;;;;;;6.68;2.97;;;;;;;;;;4971993;28;20059;-59
2022/02/10 09:59:24;;;;;;;7.90;3.10;;;;;;;;;;4967619;28;20093;-58
2022/02/10 10:02:02;;;;;;;8.60;3.33;;;;;;;;;;4952428;28;20408;-61
2022/02/10 10:04:35;;;;;;;9.68;3.42;;;;;;;;;;4952039;29;20142;-61
2022/02/10 10:07:21;;;;;;;7.70;2.95;;;;;;;;;;4962846;28;20050;-61
2022/02/10 10:10:00;;;;;;;6.50;3.28;;;;;;;;;;4970973;28;20544;-60
2022/02/10 10:13:15;;;;;;;7.28;2.88;;;;;;;;;;4969057;28;20137;-59
2022/02/10 10:15:51;;;;;;;10.15;3.08;;;;;;;;;;4970979;28;20068;-61
2022/02/10 10:21:18;;;;;;;8.32;3.10;;;;;;;;;;4966551;28;20105;-60
2022/02/10 10:24:10;;;;;;;15.90;4.28;;;;;;;;;;4970996;28;20130;-60
2022/02/10 10:49:52;;;;;;;7.38;3.17;;;;;;;;;;4970584;28;20055;-59
2022/02/10 10:55:20;;;;;;;9.32;4.55;;;;;;;;;;4957308;28;20074;-60
2022/02/10 10:57:53;;;;;;;9.43;4.07;;;;;;;;;;4954652;29;20142;-61
2022/02/10 11:24:07;;;;;;;10.27;4.35;;;;;;;;;;4973906;28;20109;-67
2022/02/10 11:38:16;;;;;;;7.72;3.30;;;;;;;;;;5004926;28;20065;-66
2022/02/10 13:24:13;;;;;;;9.95;4.35;;;;;;;;;;4973643;28;20061;-68
2022/02/10 13:33:23;;;;;;;14.20;5.88;;;;;;;;;;4972124;28;20137;-68
2022/02/10 14:09:14;;;;;;;14.48;5.47;;;;;;;;;;4976227;28;20061;-67
2022/02/10 14:12:29;;;;;;;8.88;5.00;;;;;;;;;;4992538;28;20058;-68
2022/02/10 14:14:46;;;;;;;17.27;8.25;;;;;;;;;;4994932;28;20062;-68
2022/02/10 14:17:17;;;;;;;13.00;6.35;;;;;;;;;;4994406;28;20058;-68
2022/02/10 14:19:58;;;;;;;10.65;5.22;;;;;;;;;;4994123;28;20381;-68
2022/02/10 14:22:37;;;;;;;14.57;5.57;;;;;;;;;;4994760;28;20474;-68
2022/02/10 14:27:50;;;;;;;12.07;5.93;;;;;;;;;;4994610;28;20534;-68
2022/02/10 14:30:17;;;;;;;11.48;5.60;;;;;;;;;;4994748;28;20054;-68
2022/02/10 14:32:45;;;;;;;14.52;6.13;;;;;;;;;;4994351;28;20048;-68
2022/02/10 14:35:20;;;;;;;9.85;6.15;;;;;;;;;;4994946;28;20085;-68
2022/02/10 14:38:09;;;;;;;12.50;6.35;;;;;;;;;;4994654;28;20090;-68
2022/02/10 14:41:13;;;;;;;14.80;5.57;;;;;;;;;;4995120;28;20058;-68
2022/02/10 15:11:26;;;;;;;12.75;6.13;;;;;;;;;;4993331;28;20109;-69
2022/02/10 15:28:54;;;;;;;;;;;;;;;;;;4970887;28;20069;-67
2022/02/10 15:36:30;;;;;;;13.07;6.15;;;;;;;;;;4972726;28;20054;-68
2022/02/10 15:50:29;;;;;;;14.77;5.88;;;;;;;;;;5171325;27;20377;-69
2022/02/10 16:16:00;;;;;;;15.02;6.68;;;;;;;;;;5128309;28;20508;-69
2022/02/10 16:18:14;;;;;;;15.13;6.63;;;;;;;;;;5128196;27;20052;-69
2022/02/10 16:20:47;;;;;;;14.13;6.93;;;;;;;;;;5127985;28;20059;-68
2022/02/10 16:23:18;;;;;;;15.40;6.38;;;;;;;;;;5128222;28;20690;-69
2022/02/10 16:25:49;;;;;;;;;;;;;;;;;;5128329;28;20051;-69
2022/02/10 16:28:25;;;;;;;16.00;7.28;;;;;;;;;;5127425;27;19974;-69
2022/02/10 16:30:53;;;;;;;13.48;6.57;;;;;;;;;;5128049;28;20108;-69
2022/02/10 16:33:20;;;;;;;13.07;6.22;;;;;;;;;;5128250;28;20403;-69
2022/02/10 16:35:47;;;;;;;12.98;6.75;;;;;;;;;;5128702;28;20263;-69
2022/02/10 16:38:15;;;;;;;15.30;6.60;;;;;;;;;;5127878;27;20039;-69
2022/02/10 16:40:42;;;;;;;13.40;6.95;;;;;;;;;;5127885;28;20051;-69
2022/02/10 16:43:10;;;;;;;22.17;7.35;;;;;;;;;;5128044;28;20047;-68
2022/02/10 16:45:38;;;;;;;14.00;6.50;;;;;;;;;;5128464;28;20512;-69
2022/02/10 16:48:06;;;;;;;16.52;7.80;;;;;;;;;;5127827;27;20047;-69
2022/02/10 16:50:33;;;;;;;15.90;7.50;;;;;;;;;;5128879;28;20051;-69
2022/02/10 16:53:04;;;;;;;24.23;10.70;;;;;;;;;;5128493;28;20043;-68
2022/02/10 16:55:43;;;;;;;19.20;9.73;;;;;;;;;;5128877;28;20040;-69
2022/02/10 16:58:19;;;;;;;20.50;8.60;;;;;;;;;;5127314;27;20127;-69
2022/02/10 17:01:09;;;;;;;17.35;7.63;;;;;;;;;;5117844;28;20055;-69
2022/02/10 17:04:05;;;;;;;15.48;7.72;;;;;;;;;;5113915;28;20158;-69
2022/02/10 17:17:55;;;;;;;20.98;8.20;;;;;;;;;;5113279;28;20055;-69
2022/02/10 17:20:41;;;;;;;17.80;11.00;;;;;;;;;;5113458;28;20155;-69
2022/02/10 17:26:03;;;;;;;17.83;8.43;;;;;;;;;;5113171;28;20055;-68
2022/02/10 17:28:33;;;;;;;17.30;7.50;;;;;;;;;;5114365;28;20053;-69
2022/02/10 17:34:04;;;;;;;14.20;7.18;;;;;;;;;;5099800;28;20420;-69
2022/02/10 17:36:35;;;;;;;17.33;8.65;;;;;;;;;;5120629;22;20076;-78
2022/02/10 17:45:13;;;;;;;30.00;9.95;;;;;;;;;;5191078;27;20368;-60
2022/02/10 17:53:21;;;;;;;20.30;10.38;;;;;;;;;;5149177;27;20445;-61
2022/02/10 17:55:48;;;;;;;20.10;9.63;;;;;;;;;;5149038;27;20134;-60
2022/02/10 17:58:16;;;;;;;19.48;10.15;;;;;;;;;;5148589;27;20047;-59
2022/02/10 18:00:44;;;;;;;21.40;10.40;;;;;;;;;;5149277;27;20107;-60
2022/02/10 18:03:12;;;;;;;21.88;10.32;;;;;;;;;;5148834;27;20095;-59
2022/02/10 18:06:12;;;;;;;16.92;9.75;;;;;;;;;;5148820;27;20061;-60
2022/02/10 18:08:44;;;;;;;18.07;10.00;;;;;;;;;;5148178;27;20047;-60
2022/02/10 18:14:01;;;;;;;18.45;10.90;;;;;;;;;;5148411;27;20058;-60
2022/02/10 18:16:33;;;;;;;20.63;10.82;;;;;;;;;;5148196;27;20072;-60
2022/02/10 18:19:06;;;;;;;20.33;10.43;;;;;;;;;;5148380;27;20070;-60
2022/02/10 18:21:54;;;;;;;23.00;11.68;;;;;;;;;;5148469;27;20095;-61
2022/02/10 18:27:16;;;;;;;22.83;11.85;;;;;;;;;;5147138;27;20138;-61
2022/02/10 18:30:11;;;;;;;18.77;11.20;;;;;;;;;;5148229;27;20082;-60
2022/02/10 19:01:36;;;;;;;29.30;14.90;;;;;;;;;;5144268;27;20050;-58
2022/02/10 19:08:47;;;;;;;28.80;14.77;;;;;;;;;;5132901;27;20047;-58
2022/02/10 19:11:16;;;;;;;27.23;13.48;;;;;;;;;;5134614;27;20453;-60
2022/02/10 19:13:46;;;;;;;27.05;14.98;;;;;;;;;;5134137;27;20150;-65
2022/02/10 19:16:14;;;;;;;27.73;15.50;;;;;;;;;;5133979;27;20054;-60
2022/02/10 19:18:41;;;;;;;42.65;21.23;;;;;;;;;;5134164;27;20058;-62
2022/02/10 19:21:10;;;;;;;32.03;15.88;;;;;;;;;;5133431;27;20411;-61
2022/02/10 19:23:37;;;;;;;30.13;14.25;;;;;;;;;;5120338;27;20546;-62
2022/02/10 19:26:04;;;;;;;28.55;14.43;;;;;;;;;;5130412;27;20051;-61
2022/02/10 19:28:31;;;;;;;29.50;15.48;;;;;;;;;;5124444;27;20127;-62
2022/02/10 19:31:01;;;;;;;29.80;15.45;;;;;;;;;;5122490;27;20079;-60
2022/02/10 19:33:28;;;;;;;29.15;15.63;;;;;;;;;;5122866;27;20046;-62
2022/02/10 19:35:58;;;;;;;29.77;14.40;;;;;;;;;;5124022;27;20042;-61
2022/02/10 19:38:29;;;;;;;39.87;20.83;;;;;;;;;;5120985;27;20120;-61
2022/02/10 19:40:57;;;;;;;39.92;19.13;;;;;;;;;;5123440;27;20052;-62
2022/02/10 19:43:26;;;;;;;33.78;16.52;;;;;;;;;;5124814;27;20134;-61
2022/02/10 19:45:54;;;;;;;34.00;17.20;;;;;;;;;;5134260;27;20055;-62
2022/02/10 19:48:22;;;;;;;33.60;14.85;;;;;;;;;;5133855;27;20472;-60
2022/02/10 19:50:52;;;;;;;33.15;15.90;;;;;;;;;;5133684;27;20054;-61
2022/02/10 19:53:21;;;;;;;34.78;16.58;;;;;;;;;;5133770;27;20047;-62
2022/02/10 19:55:52;;;;;;;35.65;17.02;;;;;;;;;;5130057;27;20044;-63
2022/02/10 19:58:22;;;;;;;28.00;15.35;;;;;;;;;;5113450;28;20087;-65
2022/02/10 20:00:56;;;;;;;34.40;17.17;;;;;;;;;;5113766;28;20476;-60
2022/02/10 20:03:25;;;;;;;35.92;17.60;;;;;;;;;;5113534;28;20051;-61
2022/02/10 20:05:52;;;;;;;32.42;17.67;;;;;;;;;;5112521;28;20492;-61
2022/02/10 20:08:22;;;;;;;36.60;18.05;;;;;;;;;;5112169;28;20457;-61
2022/02/10 20:10:54;;;;;;;31.02;17.20;;;;;;;;;;5112871;28;20052;-61
2022/02/10 20:13:22;;;;;;;34.30;17.70;;;;;;;;;;5112793;28;20051;-61
2022/02/10 20:15:51;;;;;;;36.00;18.77;;;;;;;;;;5112710;28;20138;-60
2022/02/10 20:18:20;;;;;;;31.63;16.60;;;;;;;;;;5112657;28;20060;-61
2022/02/10 20:20:53;;;;;;;35.58;17.65;;;;;;;;;;5112841;28;20075;-60
2022/02/10 20:23:21;;;;;;;35.97;17.65;;;;;;;;;;5112559;28;20043;-61
2022/02/10 20:25:48;;;;;;;32.17;18.02;;;;;;;;;;5112456;28;20130;-61
2022/02/10 20:28:19;;;;;;;39.15;19.88;;;;;;;;;;5112112;28;20079;-59
2022/02/10 20:30:46;;;;;;;36.33;18.90;;;;;;;;;;5112525;28;20442;-60
2022/02/10 20:33:15;;;;;;;33.38;17.48;;;;;;;;;;5112163;28;20043;-61
2022/02/10 20:35:44;;;;;;;38.22;19.15;;;;;;;;;;5112883;28;20065;-62
2022/02/10 20:38:15;;;;;;;37.53;18.35;;;;;;;;;;5112982;28;20048;-60
2022/02/10 20:40:45;;;;;;;35.13;19.13;;;;;;;;;;5113001;28;20047;-61
2022/02/10 20:43:13;;;;;;;38.70;18.35;;;;;;;;;;5112410;28;20047;-61
2022/02/10 20:45:46;;;;;;;38.25;18.52;;;;;;;;;;5112585;28;20560;-61
2022/02/10 20:48:14;;;;;;;33.85;18.35;;;;;;;;;;5112714;28;20492;-61
2022/02/10 20:50:41;;;;;;;35.80;17.10;;;;;;;;;;5112307;28;20071;-61
2022/02/10 20:53:09;;;;;;;34.03;16.00;;;;;;;;;;5112276;28;20051;-61
2022/02/10 20:55:37;;;;;;;40.30;18.40;;;;;;;;;;5111778;28;20127;-60
2022/02/10 20:58:04;;;;;;;36.22;17.73;;;;;;;;;;5112059;28;20175;-60
2022/02/10 21:00:33;;;;;;;36.40;18.80;;;;;;;;;;5112362;28;20121;-63
2022/02/10 21:03:03;;;;;;;33.42;16.88;;;;;;;;;;5112247;28;20223;-62
2022/02/10 21:05:35;;;;;;;33.97;16.85;;;;;;;;;;5112644;28;20139;-62
2022/02/10 21:08:10;;;;;;;35.85;18.15;;;;;;;;;;5112245;28;20051;-62
2022/02/10 21:10:38;;;;;;;33.05;17.30;;;;;;;;;;5111971;28;20052;-61
2022/02/10 21:13:07;;;;;;;36.28;17.30;;;;;;;;;;5112239;28;20055;-62
2022/02/10 21:15:41;;;;;;;35.97;17.98;;;;;;;;;;5112140;28;20048;-63
2022/02/10 21:18:11;;;;;;;38.08;16.98;;;;;;;;;;5111391;28;20573;-61
2022/02/10 21:20:39;;;;;;;37.53;18.15;;;;;;;;;;5112492;28;20450;-61
2022/02/10 21:23:18;;;;;;;41.60;17.90;;;;;;;;;;5112114;28;20055;-62
2022/02/10 21:25:47;;;;;;;36.70;17.75;;;;;;;;;;5112050;28;20089;-60
2022/02/10 21:28:19;;;;;;;35.15;16.70;;;;;;;;;;5112840;28;20051;-60
2022/02/10 21:30:49;;;;;;;35.58;17.10;;;;;;;;;;5112583;28;20135;-60
2022/02/10 21:33:24;;;;;;;35.53;18.48;;;;;;;;;;5112263;28;20047;-60
2022/02/10 21:38:43;;;;;;;38.95;18.83;;;;;;;;;;5112660;28;20132;-62
2022/02/10 21:42:01;;;;;;;35.95;18.60;;;;;;;;;;5112088;28;20048;-60
2022/02/10 21:52:58;;;;;;;45.05;21.98;;;;;;;;;;5111875;28;20051;-60
2022/02/10 21:55:45;;;;;;;44.22;21.27;;;;;;;;;;5111212;28;20515;-61
2022/02/10 22:18:00;;;;;;;55.17;27.35;;;;;;;;;;5111419;28;20554;-59
2022/02/10 22:20:32;;;;;;;53.30;25.50;;;;;;;;;;5110467;28;20058;-61
2022/02/10 22:23:06;;;;;;;58.00;27.75;;;;;;;;;;5111161;28;20124;-63
2022/02/10 22:25:35;;;;;;;46.38;22.73;;;;;;;;;;5111136;28;20043;-61
2022/02/10 22:28:11;;;;;;;58.10;25.58;;;;;;;;;;5110830;28;20493;-61
2022/02/10 22:30:48;;;;;;;51.22;23.83;;;;;;;;;;5112758;28;20063;-60
2022/02/10 22:33:27;;;;;;;45.03;21.63;;;;;;;;;;5115118;28;20546;-61
2022/02/10 22:35:54;;;;;;;57.00;25.45;;;;;;;;;;5114751;28;20562;-60
2022/02/10 22:38:23;;;;;;;52.53;23.52;;;;;;;;;;5114773;28;20056;-58
2022/02/10 22:41:02;;;;;;;49.92;21.92;;;;;;;;;;5114916;28;20130;-59
2022/02/10 22:43:29;;;;;;;44.83;22.20;;;;;;;;;;5114064;28;20052;-59
2022/02/10 22:45:56;;;;;;;48.00;22.15;;;;;;;;;;5113972;28;20044;-60
2022/02/10 22:48:23;;;;;;;59.80;24.75;;;;;;;;;;5114046;28;20057;-60
2022/02/10 22:50:50;;;;;;;58.40;25.88;;;;;;;;;;5114210;28;20404;-60
2022/02/10 22:53:17;;;;;;;47.38;22.92;;;;;;;;;;5113775;28;20051;-59
2022/02/10 22:55:46;;;;;;;43.78;20.40;;;;;;;;;;5113978;28;20044;-60
2022/02/10 22:58:14;;;;;;;42.97;21.45;;;;;;;;;;5114687;28;20047;-60
2022/02/10 23:00:47;;;;;;;52.50;27.20;;;;;;;;;;5113476;28;20048;-59
2022/02/10 23:03:15;;;;;;;59.60;27.48;;;;;;;;;;5114152;28;20039;-59
2022/02/10 23:05:42;;;;;;;51.90;23.65;;;;;;;;;;5114121;28;20052;-60
2022/02/10 23:08:10;;;;;;;48.78;25.27;;;;;;;;;;5114191;28;20177;-58
2022/02/10 23:10:46;;;;;;;57.42;25.08;;;;;;;;;;5115346;28;20458;-57
2022/02/10 23:13:16;;;;;;;50.40;24.48;;;;;;;;;;5115900;28;20056;-60
2022/02/10 23:15:45;;;;;;;54.30;25.08;;;;;;;;;;5116584;28;20116;-60
2022/02/10 23:18:14;;;;;;;51.17;24.13;;;;;;;;;;5115746;28;20054;-60
2022/02/10 23:20:41;;;;;;;56.65;26.10;;;;;;;;;;5115720;28;20039;-60
2022/02/10 23:23:10;;;;;;;53.22;25.25;;;;;;;;;;5115705;28;20134;-60
2022/02/10 23:25:37;;;;;;;53.72;24.92;;;;;;;;;;5115662;28;20039;-60
2022/02/10 23:28:06;;;;;;;53.35;24.98;;;;;;;;;;5115391;28;20044;-60
2022/02/10 23:30:35;;;;;;;57.75;24.70;;;;;;;;;;5115465;28;20065;-59
2022/02/10 23:33:09;;;;;;;49.70;23.88;;;;;;;;;;5115871;28;20389;-60
2022/02/10 23:38:29;;;;;;;49.38;22.23;;;;;;;;;;5115565;28;20054;-60
2022/02/10 23:41:32;;;;;;;51.30;23.42;;;;;;;;;;5115319;28;20081;-61
2022/02/10 23:43:54;;;;;;;50.60;21.05;;;;;;;;;;5115362;28;20048;-60
2022/02/10 23:46:23;;;;;;;51.45;21.75;;;;;;;;;;5115519;28;20146;-60
2022/02/10 23:48:52;;;;;;;47.50;19.17;;;;;;;;;;5115337;28;20063;-61
2022/02/10 23:51:22;;;;;;;43.03;20.15;;;;;;;;;;5115434;28;20484;-61
2022/02/10 23:53:49;;;;;;;41.05;20.40;;;;;;;;;;5115072;28;20052;-61
2022/02/10 23:56:18;;;;;;;46.78;20.10;;;;;;;;;;5115350;28;20408;-61
2022/02/10 23:58:53;;;;;;;40.47;19.45;;;;;;;;;;5115349;28;20058;-60
